sensor_id;sensor_type;location;lat;lon;timestamp;temperature;humidity
62476;DHT22;50739;45.670;11.936;2023-03-20T00:01:00;11.87;84.95
62476;DHT22;50739;45.670;11.936;2023-03-20T00:06:01;11.87;83.92
62476;DHT22;50739;45.670;11.936;2023-03-20T00:11:24;11.85;84.52
62476;DHT22;50739;45.670;11.936;2023-03-20T00:16:30;11.86;84.37
62476;DHT22;50739;45.670;11.936;2023-03-20T00:21:32;11.86;84.91
62476;DHT22;50739;45.670;11.936;2023-03-20T00:26:36;11.65;85.59
62476;DHT22;50739;45.670;11.936;2023-03-20T00:31:38;11.58;85.98
62476;DHT22;50739;45.670;11.936;2023-03-20T00:36:40;11.58;85.35
62476;DHT22;50739;45.670;11.936;2023-03-20T00:41:47;11.61;86.39
62476;DHT22;50739;45.670;11.936;2023-03-20T00:46:53;11.55;85.89
62476;DHT22;50739;45.670;11.936;2023-03-20T00:51:55;11.57;85.93
62476;DHT22;50739;45.670;11.936;2023-03-20T00:57:00;11.54;86.18
62476;DHT22;50739;45.670;11.936;2023-03-20T01:02:03;11.44;86.54
62476;DHT22;50739;45.670;11.936;2023-03-20T01:07:07;11.45;86.73
62476;DHT22;50739;45.670;11.936;2023-03-20T01:12:14;11.42;85.82
62476;DHT22;50739;45.670;11.936;2023-03-20T01:17:19;11.42;86.32
62476;DHT22;50739;45.670;11.936;2023-03-20T01:22:22;11.38;86.49
62476;DHT22;50739;45.670;11.936;2023-03-20T01:27:25;11.41;85.27
62476;DHT22;50739;45.670;11.936;2023-03-20T01:32:27;11.37;85.70
62476;DHT22;50739;45.670;11.936;2023-03-20T01:37:29;11.34;85.74
62476;DHT22;50739;45.670;11.936;2023-03-20T01:42:34;11.28;85.22
62476;DHT22;50739;45.670;11.936;2023-03-20T01:47:35;11.27;85.55
62476;DHT22;50739;45.670;11.936;2023-03-20T01:52:37;11.31;85.49
62476;DHT22;50739;45.670;11.936;2023-03-20T01:57:41;11.32;85.93
62476;DHT22;50739;45.670;11.936;2023-03-20T02:02:44;11.28;86.26
62476;DHT22;50739;45.670;11.936;2023-03-20T02:07:58;11.21;86.09
62476;DHT22;50739;45.670;11.936;2023-03-20T02:13:04;11.27;85.53
62476;DHT22;50739;45.670;11.936;2023-03-20T02:18:06;11.31;84.58
62476;DHT22;50739;45.670;11.936;2023-03-20T02:29:21;11.21;84.64
62476;DHT22;50739;45.670;11.936;2023-03-20T02:35:16;11.17;84.66
62476;DHT22;50739;45.670;11.936;2023-03-20T02:40:31;11.11;85.02
62476;DHT22;50739;45.670;11.936;2023-03-20T02:45:40;11.11;84.03
62476;DHT22;50739;45.670;11.936;2023-03-20T02:50:47;11.13;83.74
62476;DHT22;50739;45.670;11.936;2023-03-20T02:55:55;11.09;83.93
62476;DHT22;50739;45.670;11.936;2023-03-20T03:01:02;11.17;83.54
62476;DHT22;50739;45.670;11.936;2023-03-20T03:06:11;11.10;83.55
62476;DHT22;50739;45.670;11.936;2023-03-20T03:11:15;11.04;83.77
62476;DHT22;50739;45.670;11.936;2023-03-20T03:16:20;11.04;83.37
62476;DHT22;50739;45.670;11.936;2023-03-20T03:21:25;11.02;83.15
62476;DHT22;50739;45.670;11.936;2023-03-20T03:26:34;11.03;83.34
62476;DHT22;50739;45.670;11.936;2023-03-20T03:31:38;11.04;83.27
62476;DHT22;50739;45.670;11.936;2023-03-20T03:36:47;11.06;82.64
62476;DHT22;50739;45.670;11.936;2023-03-20T03:41:55;11.06;82.31
62476;DHT22;50739;45.670;11.936;2023-03-20T03:47:03;10.97;82.97
62476;DHT22;50739;45.670;11.936;2023-03-20T03:52:10;11.04;82.32
62476;DHT22;50739;45.670;11.936;2023-03-20T03:57:17;10.99;82.40
62476;DHT22;50739;45.670;11.936;2023-03-20T04:02:21;10.97;82.20
62476;DHT22;50739;45.670;11.936;2023-03-20T04:07:26;10.86;82.68
62476;DHT22;50739;45.670;11.936;2023-03-20T04:12:35;10.75;82.73
62476;DHT22;50739;45.670;11.936;2023-03-20T04:17:38;10.72;82.63
62476;DHT22;50739;45.670;11.936;2023-03-20T04:22:40;10.75;82.27
62476;DHT22;50739;45.670;11.936;2023-03-20T04:27:44;10.69;82.64
62476;DHT22;50739;45.670;11.936;2023-03-20T04:32:45;10.64;82.72
62476;DHT22;50739;45.670;11.936;2023-03-20T04:37:47;10.58;82.66
62476;DHT22;50739;45.670;11.936;2023-03-20T04:42:51;10.61;82.76
62476;DHT22;50739;45.670;11.936;2023-03-20T04:47:52;10.64;82.69
62476;DHT22;50739;45.670;11.936;2023-03-20T04:52:54;10.56;83.20
62476;DHT22;50739;45.670;11.936;2023-03-20T04:57:58;10.56;82.95
62476;DHT22;50739;45.670;11.936;2023-03-20T05:03:01;10.62;83.02
62476;DHT22;50739;45.670;11.936;2023-03-20T05:08:04;10.55;83.14
62476;DHT22;50739;45.670;11.936;2023-03-20T05:13:07;10.44;83.94
62476;DHT22;50739;45.670;11.936;2023-03-20T05:18:09;10.40;84.98
62476;DHT22;50739;45.670;11.936;2023-03-20T05:23:11;10.38;84.05
62476;DHT22;50739;45.670;11.936;2023-03-20T05:28:14;10.34;84.38
62476;DHT22;50739;45.670;11.936;2023-03-20T05:33:16;10.28;84.25
62476;DHT22;50739;45.670;11.936;2023-03-20T05:38:18;10.28;83.90
62476;DHT22;50739;45.670;11.936;2023-03-20T05:43:23;10.25;83.59
62476;DHT22;50739;45.670;11.936;2023-03-20T05:48:26;10.22;84.12
62476;DHT22;50739;45.670;11.936;2023-03-20T05:53:28;10.27;83.26
62476;DHT22;50739;45.670;11.936;2023-03-20T05:58:31;10.30;83.07
62476;DHT22;50739;45.670;11.936;2023-03-20T06:03:33;10.37;82.76
62476;DHT22;50739;45.670;11.936;2023-03-20T06:08:36;10.40;82.96
62476;DHT22;50739;45.670;11.936;2023-03-20T06:13:39;10.51;81.65
62476;DHT22;50739;45.670;11.936;2023-03-20T06:18:43;10.54;81.47
62476;DHT22;50739;45.670;11.936;2023-03-20T06:23:45;10.55;81.99
62476;DHT22;50739;45.670;11.936;2023-03-20T06:28:48;10.61;81.94
62476;DHT22;50739;45.670;11.936;2023-03-20T06:33:50;10.62;82.01
62476;DHT22;50739;45.670;11.936;2023-03-20T06:38:54;10.68;81.81
62476;DHT22;50739;45.670;11.936;2023-03-20T06:43:58;10.64;81.34
62476;DHT22;50739;45.670;11.936;2023-03-20T06:49:00;10.73;81.14
62476;DHT22;50739;45.670;11.936;2023-03-20T06:54:02;10.76;81.09
62476;DHT22;50739;45.670;11.936;2023-03-20T06:59:05;10.84;80.79
62476;DHT22;50739;45.670;11.936;2023-03-20T07:04:07;10.89;80.98
62476;DHT22;50739;45.670;11.936;2023-03-20T07:09:09;11.02;80.84
62476;DHT22;50739;45.670;11.936;2023-03-20T07:14:12;11.07;80.61
62476;DHT22;50739;45.670;11.936;2023-03-20T07:19:14;11.09;80.89
62476;DHT22;50739;45.670;11.936;2023-03-20T07:24:16;11.13;80.79
62476;DHT22;50739;45.670;11.936;2023-03-20T07:29:19;11.17;80.63
62476;DHT22;50739;45.670;11.936;2023-03-20T07:34:21;11.23;80.90
62476;DHT22;50739;45.670;11.936;2023-03-20T07:39:23;11.26;80.88
62476;DHT22;50739;45.670;11.936;2023-03-20T07:44:26;11.31;80.94
62476;DHT22;50739;45.670;11.936;2023-03-20T07:49:28;11.38;80.24
62476;DHT22;50739;45.670;11.936;2023-03-20T07:54:30;11.52;80.34
62476;DHT22;50739;45.670;11.936;2023-03-20T07:59:33;11.54;80.90
62476;DHT22;50739;45.670;11.936;2023-03-20T08:04:35;11.65;81.24
62476;DHT22;50739;45.670;11.936;2023-03-20T08:09:37;11.71;81.14
62476;DHT22;50739;45.670;11.936;2023-03-20T08:14:40;11.74;81.02
62476;DHT22;50739;45.670;11.936;2023-03-20T08:19:43;11.87;80.06
62476;DHT22;50739;45.670;11.936;2023-03-20T08:24:45;11.95;79.52
62476;DHT22;50739;45.670;11.936;2023-03-20T08:29:48;12.02;79.50
62476;DHT22;50739;45.670;11.936;2023-03-20T08:34:50;12.05;79.17
62476;DHT22;50739;45.670;11.936;2023-03-20T08:39:52;12.12;77.58
62476;DHT22;50739;45.670;11.936;2023-03-20T08:44:55;12.24;77.11
62476;DHT22;50739;45.670;11.936;2023-03-20T08:49:57;12.26;77.48
62476;DHT22;50739;45.670;11.936;2023-03-20T08:54:59;12.36;77.14
62476;DHT22;50739;45.670;11.936;2023-03-20T09:00:02;12.37;76.71
62476;DHT22;50739;45.670;11.936;2023-03-20T09:05:06;12.52;76.76
62476;DHT22;50739;45.670;11.936;2023-03-20T09:10:09;12.50;76.92
62476;DHT22;50739;45.670;11.936;2023-03-20T09:15:13;12.50;77.88
62476;DHT22;50739;45.670;11.936;2023-03-20T09:20:15;12.60;77.59
62476;DHT22;50739;45.670;11.936;2023-03-20T09:25:16;12.61;78.98
62476;DHT22;50739;45.670;11.936;2023-03-20T09:30:20;12.75;78.90
62476;DHT22;50739;45.670;11.936;2023-03-20T09:35:22;12.92;79.40
62476;DHT22;50739;45.670;11.936;2023-03-20T09:40:27;13.00;79.84
62476;DHT22;50739;45.670;11.936;2023-03-20T09:45:40;13.09;80.01
62476;DHT22;50739;45.670;11.936;2023-03-20T09:50:48;13.17;79.63
62476;DHT22;50739;45.670;11.936;2023-03-20T09:55:53;13.30;78.48
62476;DHT22;50739;45.670;11.936;2023-03-20T10:00:59;13.37;78.18
62476;DHT22;50739;45.670;11.936;2023-03-20T10:06:04;13.48;77.86
62476;DHT22;50739;45.670;11.936;2023-03-20T10:11:21;13.64;77.58
62476;DHT22;50739;45.670;11.936;2023-03-20T10:16:41;13.71;78.07
62476;DHT22;50739;45.670;11.936;2023-03-20T10:21:46;13.72;78.26
62476;DHT22;50739;45.670;11.936;2023-03-20T10:26:51;13.79;78.45
62476;DHT22;50739;45.670;11.936;2023-03-20T10:32:01;13.85;78.12
62476;DHT22;50739;45.670;11.936;2023-03-20T10:37:18;13.92;78.52
62476;DHT22;50739;45.670;11.936;2023-03-20T10:42:26;14.06;77.09
62476;DHT22;50739;45.670;11.936;2023-03-20T10:47:33;14.12;76.03
62476;DHT22;50739;45.670;11.936;2023-03-20T10:52:38;14.15;74.69
62476;DHT22;50739;45.670;11.936;2023-03-20T10:57:45;14.27;73.83
62476;DHT22;50739;45.670;11.936;2023-03-20T11:02:49;14.32;75.57
62476;DHT22;50739;45.670;11.936;2023-03-20T11:08:01;14.34;74.90
62476;DHT22;50739;45.670;11.936;2023-03-20T11:13:14;14.44;75.02
62476;DHT22;50739;45.670;11.936;2023-03-20T11:18:23;14.51;74.39
62476;DHT22;50739;45.670;11.936;2023-03-20T11:23:27;14.59;73.01
62476;DHT22;50739;45.670;11.936;2023-03-20T11:28:33;14.65;75.60
62476;DHT22;50739;45.670;11.936;2023-03-20T11:33:38;14.73;75.65
62476;DHT22;50739;45.670;11.936;2023-03-20T11:38:43;14.78;75.72
62476;DHT22;50739;45.670;11.936;2023-03-20T11:43:45;14.91;74.93
62476;DHT22;50739;45.670;11.936;2023-03-20T11:49:02;15.23;74.02
62476;DHT22;50739;45.670;11.936;2023-03-20T11:54:05;15.16;73.68
62476;DHT22;50739;45.670;11.936;2023-03-20T11:59:12;15.29;74.63
62476;DHT22;50739;45.670;11.936;2023-03-20T12:04:20;15.53;75.45
62476;DHT22;50739;45.670;11.936;2023-03-20T12:09:36;15.57;72.73
62476;DHT22;50739;45.670;11.936;2023-03-20T12:14:43;15.40;72.09
62476;DHT22;50739;45.670;11.936;2023-03-20T12:19:49;15.47;74.02
62476;DHT22;50739;45.670;11.936;2023-03-20T12:24:59;15.66;72.60
62476;DHT22;50739;45.670;11.936;2023-03-20T12:30:05;15.70;71.22
62476;DHT22;50739;45.670;11.936;2023-03-20T12:35:16;15.80;69.14
62476;DHT22;50739;45.670;11.936;2023-03-20T12:40:23;16.08;71.72
62476;DHT22;50739;45.670;11.936;2023-03-20T12:45:32;16.25;70.61
62476;DHT22;50739;45.670;11.936;2023-03-20T12:50:40;16.23;68.57
62476;DHT22;50739;45.670;11.936;2023-03-20T12:55:53;16.29;69.45
62476;DHT22;50739;45.670;11.936;2023-03-20T13:01:02;16.66;70.03
62476;DHT22;50739;45.670;11.936;2023-03-20T13:06:10;17.42;68.29
62476;DHT22;50739;45.670;11.936;2023-03-20T13:11:18;17.74;66.95
62476;DHT22;50739;45.670;11.936;2023-03-20T13:16:33;17.84;65.59
62476;DHT22;50739;45.670;11.936;2023-03-20T13:21:44;18.11;64.63
62476;DHT22;50739;45.670;11.936;2023-03-20T13:26:54;18.34;65.55
62476;DHT22;50739;45.670;11.936;2023-03-20T13:32:08;18.32;64.88
62476;DHT22;50739;45.670;11.936;2023-03-20T13:37:18;18.93;64.52
62476;DHT22;50739;45.670;11.936;2023-03-20T13:42:23;18.11;66.20
62476;DHT22;50739;45.670;11.936;2023-03-20T13:47:30;17.76;66.71
62476;DHT22;50739;45.670;11.936;2023-03-20T13:52:38;17.40;68.18
62476;DHT22;50739;45.670;11.936;2023-03-20T13:57:57;17.21;67.83
62476;DHT22;50739;45.670;11.936;2023-03-20T14:03:13;17.49;65.70
62476;DHT22;50739;45.670;11.936;2023-03-20T14:08:32;17.47;66.27
62476;DHT22;50739;45.670;11.936;2023-03-20T14:13:36;17.29;66.19
62476;DHT22;50739;45.670;11.936;2023-03-20T14:18:39;17.12;66.91
62476;DHT22;50739;45.670;11.936;2023-03-20T14:23:47;16.97;67.77
62476;DHT22;50739;45.670;11.936;2023-03-20T14:28:58;16.97;68.00
62476;DHT22;50739;45.670;11.936;2023-03-20T14:34:14;16.66;68.33
62476;DHT22;50739;45.670;11.936;2023-03-20T14:39:33;16.71;69.31
62476;DHT22;50739;45.670;11.936;2023-03-20T14:44:47;16.71;69.02
62476;DHT22;50739;45.670;11.936;2023-03-20T14:49:54;16.53;70.67
62476;DHT22;50739;45.670;11.936;2023-03-20T15:00:34;16.23;71.04
62476;DHT22;50739;45.670;11.936;2023-03-20T15:05:37;16.11;72.09
62476;DHT22;50739;45.670;11.936;2023-03-20T15:10:46;16.12;72.47
62476;DHT22;50739;45.670;11.936;2023-03-20T15:15:54;16.15;72.17
62476;DHT22;50739;45.670;11.936;2023-03-20T15:20:57;16.04;72.44
62476;DHT22;50739;45.670;11.936;2023-03-20T15:26:00;16.09;72.66
62476;DHT22;50739;45.670;11.936;2023-03-20T15:31:03;16.16;72.00
62476;DHT22;50739;45.670;11.936;2023-03-20T15:36:07;16.88;70.81
62476;DHT22;50739;45.670;11.936;2023-03-20T15:41:24;17.45;68.81
62476;DHT22;50739;45.670;11.936;2023-03-20T15:46:26;17.56;68.35
62476;DHT22;50739;45.670;11.936;2023-03-20T15:51:27;17.84;67.51
62476;DHT22;50739;45.670;11.936;2023-03-20T15:56:31;17.80;67.05
62476;DHT22;50739;45.670;11.936;2023-03-20T16:01:33;18.07;67.09
62476;DHT22;50739;45.670;11.936;2023-03-20T16:06:44;18.04;67.11
62476;DHT22;50739;45.670;11.936;2023-03-20T16:11:53;17.83;66.63
62476;DHT22;50739;45.670;11.936;2023-03-20T16:16:59;17.77;67.95
62476;DHT22;50739;45.670;11.936;2023-03-20T16:22:07;17.29;68.93
62476;DHT22;50739;45.670;11.936;2023-03-20T16:27:21;17.31;69.02
62476;DHT22;50739;45.670;11.936;2023-03-20T16:32:31;16.71;70.80
62476;DHT22;50739;45.670;11.936;2023-03-20T16:37:40;16.50;71.45
62476;DHT22;50739;45.670;11.936;2023-03-20T16:42:44;16.23;72.41
62476;DHT22;50739;45.670;11.936;2023-03-20T16:47:47;15.95;73.28
62476;DHT22;50739;45.670;11.936;2023-03-20T16:52:51;15.87;74.06
62476;DHT22;50739;45.670;11.936;2023-03-20T16:57:57;15.61;75.30
62476;DHT22;50739;45.670;11.936;2023-03-20T17:03:12;15.39;76.16
62476;DHT22;50739;45.670;11.936;2023-03-20T17:14:41;15.29;76.75
62476;DHT22;50739;45.670;11.936;2023-03-20T17:19:45;15.13;77.09
62476;DHT22;50739;45.670;11.936;2023-03-20T17:24:49;15.09;77.07
62476;DHT22;50739;45.670;11.936;2023-03-20T17:29:53;14.95;77.65
62476;DHT22;50739;45.670;11.936;2023-03-20T17:34:55;14.89;78.36
62476;DHT22;50739;45.670;11.936;2023-03-20T17:39:57;14.81;77.90
62476;DHT22;50739;45.670;11.936;2023-03-20T17:45:01;14.68;78.90
62476;DHT22;50739;45.670;11.936;2023-03-20T17:50:04;14.41;80.17
62476;DHT22;50739;45.670;11.936;2023-03-20T17:55:07;14.29;80.37
62476;DHT22;50739;45.670;11.936;2023-03-20T18:00:17;14.15;80.95
62476;DHT22;50739;45.670;11.936;2023-03-20T18:05:19;14.08;81.13
62476;DHT22;50739;45.670;11.936;2023-03-20T18:10:25;14.02;81.31
62476;DHT22;50739;45.670;11.936;2023-03-20T18:15:28;13.97;81.79
62476;DHT22;50739;45.670;11.936;2023-03-20T18:20:34;13.86;82.02
62476;DHT22;50739;45.670;11.936;2023-03-20T18:25:37;13.75;82.80
62476;DHT22;50739;45.670;11.936;2023-03-20T18:31:01;13.64;82.68
62476;DHT22;50739;45.670;11.936;2023-03-20T18:36:03;13.61;83.17
62476;DHT22;50739;45.670;11.936;2023-03-20T18:41:05;13.47;83.35
62476;DHT22;50739;45.670;11.936;2023-03-20T18:46:12;13.39;83.52
62476;DHT22;50739;45.670;11.936;2023-03-20T18:51:14;13.28;83.82
62476;DHT22;50739;45.670;11.936;2023-03-20T18:56:17;13.27;83.88
62476;DHT22;50739;45.670;11.936;2023-03-20T19:01:21;13.27;83.77
62476;DHT22;50739;45.670;11.936;2023-03-20T19:06:23;13.17;83.97
62476;DHT22;50739;45.670;11.936;2023-03-20T19:11:26;13.13;84.03
62476;DHT22;50739;45.670;11.936;2023-03-20T19:16:31;13.07;84.51
62476;DHT22;50739;45.670;11.936;2023-03-20T19:21:34;13.00;84.47
62476;DHT22;50739;45.670;11.936;2023-03-20T19:26:36;12.92;84.07
62476;DHT22;50739;45.670;11.936;2023-03-20T19:31:40;12.91;84.04
62476;DHT22;50739;45.670;11.936;2023-03-20T19:36:43;12.75;85.38
62476;DHT22;50739;45.670;11.936;2023-03-20T19:41:47;12.75;84.56
62476;DHT22;50739;45.670;11.936;2023-03-20T19:46:52;12.71;84.57
62476;DHT22;50739;45.670;11.936;2023-03-20T19:51:55;12.62;84.82
62476;DHT22;50739;45.670;11.936;2023-03-20T19:56:57;12.61;85.22
62476;DHT22;50739;45.670;11.936;2023-03-20T20:02:01;12.64;85.28
62476;DHT22;50739;45.670;11.936;2023-03-20T20:07:03;12.51;85.21
62476;DHT22;50739;45.670;11.936;2023-03-20T20:12:05;12.37;85.43
62476;DHT22;50739;45.670;11.936;2023-03-20T20:17:09;12.31;85.53
62476;DHT22;50739;45.670;11.936;2023-03-20T20:22:11;12.27;85.12
62476;DHT22;50739;45.670;11.936;2023-03-20T20:27:13;12.22;85.50
62476;DHT22;50739;45.670;11.936;2023-03-20T20:32:17;12.34;85.60
62476;DHT22;50739;45.670;11.936;2023-03-20T20:37:20;12.27;85.61
62476;DHT22;50739;45.670;11.936;2023-03-20T20:42:22;12.17;86.29
62476;DHT22;50739;45.670;11.936;2023-03-20T20:47:26;12.09;86.20
62476;DHT22;50739;45.670;11.936;2023-03-20T20:52:28;12.02;87.20
62476;DHT22;50739;45.670;11.936;2023-03-20T20:57:29;11.97;86.39
62476;DHT22;50739;45.670;11.936;2023-03-20T21:02:32;11.90;86.32
62476;DHT22;50739;45.670;11.936;2023-03-20T21:07:34;11.85;85.83
62476;DHT22;50739;45.670;11.936;2023-03-20T21:12:36;11.76;85.89
62476;DHT22;50739;45.670;11.936;2023-03-20T21:17:40;11.81;86.14
62476;DHT22;50739;45.670;11.936;2023-03-20T21:22:42;11.71;86.32
62476;DHT22;50739;45.670;11.936;2023-03-20T21:27:44;11.57;86.35
62476;DHT22;50739;45.670;11.936;2023-03-20T21:32:47;11.58;86.13
62476;DHT22;50739;45.670;11.936;2023-03-20T21:37:49;11.51;86.21
62476;DHT22;50739;45.670;11.936;2023-03-20T21:42:51;11.42;86.25
62476;DHT22;50739;45.670;11.936;2023-03-20T21:47:55;11.37;86.05
62476;DHT22;50739;45.670;11.936;2023-03-20T21:52:57;11.34;86.70
62476;DHT22;50739;45.670;11.936;2023-03-20T21:57:59;11.32;86.51
62476;DHT22;50739;45.670;11.936;2023-03-20T22:03:02;11.27;86.85
62476;DHT22;50739;45.670;11.936;2023-03-20T22:08:04;11.28;86.00
62476;DHT22;50739;45.670;11.936;2023-03-20T22:13:06;11.13;86.62
62476;DHT22;50739;45.670;11.936;2023-03-20T22:18:09;11.13;86.55
62476;DHT22;50739;45.670;11.936;2023-03-20T22:23:11;11.10;87.28
62476;DHT22;50739;45.670;11.936;2023-03-20T22:28:13;11.14;87.69
62476;DHT22;50739;45.670;11.936;2023-03-20T22:33:16;11.21;87.14
62476;DHT22;50739;45.670;11.936;2023-03-20T22:38:18;11.23;87.24
62476;DHT22;50739;45.670;11.936;2023-03-20T22:43:20;11.13;87.66
62476;DHT22;50739;45.670;11.936;2023-03-20T22:48:24;11.14;88.14
62476;DHT22;50739;45.670;11.936;2023-03-20T22:53:26;11.16;87.84
62476;DHT22;50739;45.670;11.936;2023-03-20T22:58:28;11.11;87.76
62476;DHT22;50739;45.670;11.936;2023-03-20T23:03:31;11.02;87.50
62476;DHT22;50739;45.670;11.936;2023-03-20T23:08:33;11.02;87.48
62476;DHT22;50739;45.670;11.936;2023-03-20T23:13:36;10.93;86.80
62476;DHT22;50739;45.670;11.936;2023-03-20T23:18:39;10.93;86.93
62476;DHT22;50739;45.670;11.936;2023-03-20T23:23:41;10.73;87.69
62476;DHT22;50739;45.670;11.936;2023-03-20T23:28:44;10.76;87.85
62476;DHT22;50739;45.670;11.936;2023-03-20T23:33:49;10.68;88.03
62476;DHT22;50739;45.670;11.936;2023-03-20T23:38:51;10.66;87.55
62476;DHT22;50739;45.670;11.936;2023-03-20T23:43:53;10.64;87.33
62476;DHT22;50739;45.670;11.936;2023-03-20T23:48:56;10.55;87.56
62476;DHT22;50739;45.670;11.936;2023-03-20T23:53:58;10.44;87.85
62476;DHT22;50739;45.670;11.936;2023-03-20T23:59:00;10.49;87.82
